Time;durP1;ratioP1;P1;durP2;ratioP2;P2;SDS_P1;SDS_P2;PMS_P1;PMS_P2;Temp;Humidity;BMP_temperature;BMP_pressure;BME280_temperature;BME280_humidity;BME280_pressure;Samples;Min_cycle;Max_cycle;Signal;HPM_P1;HPM_P2
2022/08/26 11:02:47;;;;;;;10.55;3.33;;;26.30;99.90;;;;;;5049601;28;20403;-71
2022/08/26 11:05:18;;;;;;;7.68;2.10;;;25.80;99.90;;;;;;5046920;28;20123;-74
2022/08/26 11:08:11;;;;;;;8.68;2.85;;;26.00;99.90;;;;;;5043384;28;20041;-72
2022/08/26 11:10:39;;;;;;;;;;;26.10;99.90;;;;;;5047296;28;20131;-73
2022/08/26 11:13:07;;;;;;;7.25;2.85;;;26.40;99.90;;;;;;5049674;28;20296;-71
2022/08/26 11:15:39;;;;;;;7.47;3.33;;;26.30;99.90;;;;;;5039820;28;20078;-71
2022/08/26 11:18:06;;;;;;;9.03;3.40;;;26.30;99.90;;;;;;5047458;28;20504;-71
2022/08/26 11:20:34;;;;;;;16.90;3.28;;;26.10;99.90;;;;;;5047083;28;20127;-70
2022/08/26 11:23:29;;;;;;;6.85;2.28;;;26.00;99.90;;;;;;5045924;28;20025;-70
2022/08/26 11:26:04;;;;;;;5.20;2.22;;;25.80;99.90;;;;;;5033128;28;20044;-71
2022/08/26 11:28:49;;;;;;;13.20;2.13;;;25.60;99.90;;;;;;5046660;28;20048;-71
2022/08/26 11:31:20;;;;;;;7.90;2.25;;;25.60;99.90;;;;;;5059387;28;20017;-70
2022/08/26 11:33:49;;;;;;;11.40;3.40;;;25.40;99.90;;;;;;5043815;28;20028;-71
2022/08/26 11:36:36;;;;;;;10.05;2.22;;;25.40;99.90;;;;;;5044448;28;20034;-69
2022/08/26 11:39:12;;;;;;;5.20;1.90;;;25.30;99.90;;;;;;5042166;28;20025;-72
2022/08/26 11:44:10;;;;;;;5.25;2.40;;;25.60;99.90;;;;;;5121339;27;20401;-71
2022/08/26 11:46:38;;;;;;;9.73;3.17;;;25.60;99.90;;;;;;5117015;28;20038;-73
2022/08/26 11:49:06;;;;;;;11.32;3.05;;;25.50;99.90;;;;;;5121670;28;20024;-70
2022/08/26 11:51:34;;;;;;;7.72;3.05;;;25.50;99.90;;;;;;5118441;28;20066;-71
2022/08/26 11:54:14;;;;;;;9.68;3.13;;;25.60;99.90;;;;;;5111493;28;20024;-70
2022/08/26 11:56:42;;;;;;;7.35;2.45;;;25.80;99.90;;;;;;5114937;28;20432;-71
2022/08/26 11:59:14;;;;;;;8.73;2.60;;;25.90;99.90;;;;;;5121657;28;20081;-71
2022/08/26 12:01:44;;;;;;;5.03;2.55;;;26.00;99.90;;;;;;5118220;28;20028;-71
2022/08/26 12:04:18;;;;;;;3.97;1.85;;;26.10;99.90;;;;;;5119813;28;20012;-71
2022/08/26 12:06:50;;;;;;;6.57;2.17;;;26.10;99.90;;;;;;5119889;28;20050;-71
2022/08/26 12:09:22;;;;;;;8.35;2.35;;;26.10;99.90;;;;;;5114576;28;20359;-70
2022/08/26 12:11:48;;;;;;;7.07;2.00;;;26.10;99.90;;;;;;5116865;28;20115;-72
2022/08/26 12:14:21;;;;;;;6.05;2.10;;;26.20;99.90;;;;;;5115766;27;20110;-71
2022/08/26 12:16:47;;;;;;;4.82;2.42;;;26.20;99.90;;;;;;5114419;28;20026;-71
2022/08/26 12:19:28;;;;;;;16.17;2.33;;;26.00;99.90;;;;;;5120090;28;20106;-71
2022/08/26 12:22:16;;;;;;;12.55;2.75;;;26.10;99.90;;;;;;5115942;28;20035;-71
2022/08/26 12:24:55;;;;;;;6.95;2.03;;;26.20;99.90;;;;;;5112794;28;20364;-71
2022/08/26 12:27:26;;;;;;;5.57;1.95;;;26.20;99.90;;;;;;5116408;28;20098;-71
2022/08/26 12:30:14;;;;;;;12.57;2.70;;;26.40;99.90;;;;;;5117694;28;20015;-71
2022/08/26 12:33:11;;;;;;;7.97;2.35;;;26.40;99.90;;;;;;5121214;28;20032;-70
2022/08/26 12:35:38;;;;;;;9.13;2.40;;;26.40;99.90;;;;;;5108823;28;20050;-71
2022/08/26 12:38:06;;;;;;;9.23;2.10;;;26.30;99.90;;;;;;5115072;27;20023;-71
2022/08/26 12:40:43;;;;;;;5.68;2.08;;;26.30;99.90;;;;;;5115162;28;20070;-71
2022/08/26 12:43:14;;;;;;;10.10;2.80;;;26.20;99.90;;;;;;5119608;28;20112;-71
2022/08/26 12:45:58;;;;;;;6.40;2.53;;;26.10;99.90;;;;;;5113939;28;20020;-71
2022/08/26 12:48:25;;;;;;;12.57;3.13;;;26.00;99.90;;;;;;5120527;28;20053;-72
2022/08/26 12:50:52;;;;;;;11.60;2.55;;;25.80;99.90;;;;;;5113194;28;20050;-71
2022/08/26 12:53:26;;;;;;;4.30;2.47;;;25.60;99.90;;;;;;5115943;28;20035;-71
2022/08/26 12:55:57;;;;;;;6.57;2.75;;;25.50;99.90;;;;;;5100126;28;20027;-71
2022/08/26 12:58:37;;;;;;;18.50;2.33;;;25.60;99.90;;;;;;5102906;28;20447;-71
2022/08/26 13:01:03;;;;;;;12.35;2.75;;;25.70;99.90;;;;;;5099992;28;20028;-72
2022/08/26 13:03:44;;;;;;;8.32;2.15;;;25.70;99.90;;;;;;5098885;28;20034;-72
2022/08/26 13:06:29;;;;;;;10.45;2.67;;;25.60;99.90;;;;;;5107000;28;20152;-72
2022/08/26 13:09:19;;;;;;;9.50;2.22;;;25.60;99.90;;;;;;5100761;28;20039;-71
2022/08/26 13:11:45;;;;;;;7.53;2.42;;;25.50;99.90;;;;;;5096433;28;20032;-70
2022/08/26 13:14:21;;;;;;;6.13;2.20;;;25.60;99.90;;;;;;5095057;28;20468;-72
2022/08/26 13:16:48;;;;;;;6.05;2.47;;;25.50;99.90;;;;;;5107497;28;20456;-71
2022/08/26 13:19:21;;;;;;;11.60;2.42;;;25.50;99.90;;;;;;5102101;28;20069;-72
2022/08/26 13:21:51;;;;;;;9.13;2.47;;;25.70;99.90;;;;;;5103803;28;20322;-72
2022/08/26 13:24:37;;;;;;;4.50;2.28;;;25.70;99.90;;;;;;5105897;28;20032;-72
2022/08/26 13:27:05;;;;;;;5.93;2.50;;;25.70;99.90;;;;;;5101181;28;20531;-71
2022/08/26 13:29:33;;;;;;;8.43;3.30;;;25.60;99.90;;;;;;5099661;28;20452;-72
2022/08/26 13:32:00;;;;;;;7.30;2.88;;;25.70;99.90;;;;;;5098334;28;20398;-72
2022/08/26 13:34:26;;;;;;;7.07;2.75;;;25.80;99.90;;;;;;5099122;28;20020;-71
2022/08/26 13:36:54;;;;;;;5.07;2.38;;;25.80;99.90;;;;;;5097134;28;20027;-72
2022/08/26 13:39:20;;;;;;;6.18;2.63;;;25.90;99.90;;;;;;5104134;28;20032;-71
2022/08/26 13:41:46;;;;;;;6.97;2.60;;;25.90;99.90;;;;;;5106006;28;20019;-71
2022/08/26 13:44:12;;;;;;;6.93;2.70;;;26.00;99.90;;;;;;5105456;28;20099;-70
2022/08/26 13:46:38;;;;;;;6.53;2.42;;;25.90;99.90;;;;;;5100563;28;20491;-70
2022/08/26 13:49:05;;;;;;;4.07;2.30;;;25.90;99.90;;;;;;5103763;27;20353;-72
2022/08/26 13:53:13;;;;;;;6.20;2.65;;;25.90;99.90;;;;;;5102775;27;20453;-74
2022/08/26 13:55:42;;;;;;;10.32;2.22;;;25.70;99.90;;;;;;5077223;28;20020;-71
2022/08/26 13:58:09;;;;;;;7.30;2.10;;;25.70;99.90;;;;;;5079754;28;20082;-71
2022/08/26 14:00:36;;;;;;;6.03;2.10;;;25.60;99.90;;;;;;5076673;28;20143;-73
2022/08/26 14:03:06;;;;;;;9.70;2.80;;;25.60;99.90;;;;;;5081272;28;20103;-74
2022/08/26 14:05:38;;;;;;;5.05;2.30;;;25.60;99.90;;;;;;5076286;28;20052;-74
2022/08/26 14:08:05;;;;;;;7.28;2.13;;;25.50;99.90;;;;;;5082232;28;20472;-74
2022/08/26 14:10:31;;;;;;;5.20;2.50;;;25.30;99.90;;;;;;5081742;28;20028;-73
2022/08/26 14:12:58;;;;;;;8.27;2.50;;;25.00;99.90;;;;;;5079716;28;20850;-73
2022/08/26 14:15:25;;;;;;;5.72;2.17;;;25.00;99.90;;;;;;5093373;28;20107;-74
2022/08/26 14:17:51;;;;;;;4.85;1.67;;;25.10;99.90;;;;;;5082334;28;20017;-74
2022/08/26 14:20:26;;;;;;;5.75;2.20;;;25.00;99.90;;;;;;5080945;28;20074;-74
2022/08/26 14:22:53;;;;;;;5.22;2.22;;;25.00;99.90;;;;;;5096512;28;20039;-80
2022/08/26 14:25:20;;;;;;;10.23;2.35;;;25.00;99.90;;;;;;5094506;28;20033;-75
2022/08/26 14:27:47;;;;;;;5.82;2.40;;;25.00;99.90;;;;;;5064122;28;20107;-74
2022/08/26 14:30:16;;;;;;;6.80;2.05;;;24.80;99.90;;;;;;5081411;28;20055;-74
2022/08/26 14:32:48;;;;;;;6.03;2.17;;;24.70;99.90;;;;;;5077695;28;20167;-75
2022/08/26 14:35:19;;;;;;;3.63;1.85;;;24.70;99.90;;;;;;5084035;28;20024;-73
2022/08/26 14:37:47;;;;;;;4.65;1.80;;;24.70;99.90;;;;;;5081687;28;20021;-75
2022/08/26 14:40:17;;;;;;;11.80;2.25;;;24.60;99.90;;;;;;5094731;28;20024;-75
2022/08/26 14:42:48;;;;;;;5.22;1.88;;;24.50;99.90;;;;;;5080748;28;20671;-74
2022/08/26 14:45:17;;;;;;;4.57;2.17;;;24.50;99.90;;;;;;5072896;28;20135;-75
2022/08/26 14:47:50;;;;;;;8.70;1.70;;;24.40;99.90;;;;;;5078886;28;20141;-74
2022/08/26 14:50:19;;;;;;;8.90;1.83;;;24.60;99.90;;;;;;5078674;28;20020;-75
2022/08/26 14:55:33;;;;;;;7.60;1.70;;;24.60;99.90;;;;;;5078145;28;20037;-75
2022/08/26 14:58:01;;;;;;;5.35;1.83;;;24.60;99.90;;;;;;5079071;28;20029;-75
2022/08/26 15:00:27;;;;;;;6.97;2.10;;;24.60;99.90;;;;;;5080014;28;20616;-75
2022/08/26 15:02:55;;;;;;;6.65;1.40;;;24.70;99.90;;;;;;5072333;28;20299;-75
2022/08/26 15:05:21;;;;;;;7.35;1.67;;;24.70;99.90;;;;;;5065099;28;21266;-75
2022/08/26 15:07:47;;;;;;;6.47;1.50;;;24.70;99.90;;;;;;5065101;28;20422;-75
2022/08/26 15:10:16;;;;;;;8.70;1.75;;;24.70;99.90;;;;;;5069541;28;20033;-75
2022/08/26 15:12:43;;;;;;;5.95;1.48;;;24.60;99.90;;;;;;5064338;28;20729;-75
2022/08/26 15:15:10;;;;;;;4.53;1.40;;;24.50;99.90;;;;;;5062206;28;20029;-74
2022/08/26 15:17:36;;;;;;;5.68;1.38;;;24.50;99.90;;;;;;5064978;28;20020;-74
2022/08/26 15:20:04;;;;;;;2.63;1.63;;;24.40;99.90;;;;;;5064180;28;20025;-75
2022/08/26 15:22:30;;;;;;;5.47;1.58;;;24.40;99.90;;;;;;5061898;28;20028;-74
2022/08/26 15:24:56;;;;;;;6.50;1.90;;;24.40;99.90;;;;;;5063972;28;20032;-75
2022/08/26 15:27:23;;;;;;;3.05;1.50;;;24.30;99.90;;;;;;5063386;28;20070;-74
2022/08/26 15:29:48;;;;;;;5.78;1.52;;;24.30;99.90;;;;;;5067324;28;20028;-71
2022/08/26 15:32:14;;;;;;;3.35;1.65;;;24.40;99.90;;;;;;5062701;28;20091;-72
2022/08/26 15:34:40;;;;;;;12.68;2.00;;;24.50;99.90;;;;;;5063962;28;20028;-73
2022/08/26 15:37:05;;;;;;;8.63;1.90;;;24.50;99.90;;;;;;5065565;28;20341;-71
2022/08/26 15:39:31;;;;;;;2.88;1.77;;;24.50;99.90;;;;;;5065946;28;20024;-73
2022/08/26 15:41:58;;;;;;;5.32;2.00;;;24.40;99.90;;;;;;5059398;28;20036;-71
2022/08/26 15:44:27;;;;;;;4.53;1.63;;;24.30;99.90;;;;;;5069331;28;20024;-71
2022/08/26 15:46:55;;;;;;;8.57;1.23;;;24.30;99.90;;;;;;5052878;28;20190;-74
2022/08/26 15:49:22;;;;;;;6.35;1.65;;;24.30;99.90;;;;;;5065901;28;20036;-73
2022/08/26 15:51:50;;;;;;;5.65;1.60;;;24.30;99.90;;;;;;5063934;28;20069;-72
2022/08/26 15:54:18;;;;;;;6.55;1.60;;;24.30;99.90;;;;;;5067643;28;20052;-78
2022/08/26 15:56:49;;;;;;;4.68;1.40;;;24.30;99.90;;;;;;5064058;28;20119;-73
2022/08/26 15:59:15;;;;;;;5.07;1.63;;;24.30;99.90;;;;;;5063244;28;20417;-75
2022/08/26 16:01:46;;;;;;;7.47;1.48;;;24.20;99.90;;;;;;5067352;28;20021;-70
2022/08/26 16:04:14;;;;;;;5.60;1.27;;;24.20;99.90;;;;;;5062682;28;20033;-77
2022/08/26 16:06:42;;;;;;;11.00;1.55;;;24.10;99.90;;;;;;5064240;28;20033;-75
2022/08/26 16:09:08;;;;;;;4.43;1.50;;;24.00;99.90;;;;;;5062744;28;20039;-73
2022/08/26 16:11:37;;;;;;;6.07;1.25;;;24.00;99.90;;;;;;5065275;28;20111;-74
2022/08/26 16:14:04;;;;;;;6.95;1.20;;;23.90;99.90;;;;;;5066168;28;20157;-73
2022/08/26 16:16:31;;;;;;;3.70;1.35;;;24.00;99.90;;;;;;5065073;28;20017;-77
2022/08/26 16:18:56;;;;;;;4.28;1.70;;;24.00;99.90;;;;;;5062118;28;20059;-76
2022/08/26 16:21:26;;;;;;;5.40;1.88;;;24.00;99.90;;;;;;5068851;28;20142;-74
2022/08/26 16:23:52;;;;;;;4.82;1.90;;;24.00;99.90;;;;;;5077140;28;20526;-74
2022/08/26 18:57:53;;;;;;;6.35;2.05;;;21.00;99.90;;;;;;5100184;27;20388;-76
2022/08/26 19:00:21;;;;;;;5.65;1.48;;;20.70;99.90;;;;;;5086706;28;20109;-76
2022/08/26 19:02:48;;;;;;;5.80;1.60;;;20.90;99.90;;;;;;5083858;28;20488;-81
2022/08/26 19:05:14;;;;;;;11.23;1.58;;;21.10;99.90;;;;;;5083271;28;20039;-77
2022/08/26 19:07:40;;;;;;;5.68;1.73;;;21.30;99.90;;;;;;5084297;28;20109;-78
2022/08/26 19:10:10;;;;;;;7.25;1.42;;;21.50;99.90;;;;;;5084747;28;20472;-78
2022/08/26 19:12:36;;;;;;;7.60;2.17;;;21.60;99.90;;;;;;5087115;28;20029;-79
2022/08/26 19:15:02;;;;;;;9.23;2.00;;;21.80;99.90;;;;;;5082704;28;20086;-78
2022/08/26 19:17:28;;;;;;;8.85;1.42;;;21.80;99.90;;;;;;5085875;28;20094;-78
2022/08/26 19:19:54;;;;;;;3.97;1.75;;;21.90;99.90;;;;;;5088083;28;20512;-77
2022/08/26 19:22:21;;;;;;;11.40;3.42;;;22.00;99.90;;;;;;5085888;28;20135;-80
2022/08/26 19:24:48;;;;;;;5.82;1.88;;;22.00;99.90;;;;;;5087070;28;20035;-81
2022/08/26 19:27:15;;;;;;;5.75;1.50;;;22.10;99.90;;;;;;5087201;28;20083;-78
2022/08/26 19:29:42;;;;;;;9.35;1.90;;;22.00;99.90;;;;;;5086291;28;20024;-78
2022/08/26 19:32:09;;;;;;;7.38;1.75;;;22.00;99.90;;;;;;5085823;28;20016;-77
2022/08/26 19:34:35;;;;;;;1.83;1.50;;;22.00;99.90;;;;;;5085765;28;20028;-76
2022/08/26 19:37:01;;;;;;;4.85;1.60;;;22.00;99.90;;;;;;5083782;28;20085;-78
2022/08/26 19:39:27;;;;;;;2.22;1.45;;;22.10;99.90;;;;;;5083898;28;20090;-79
2022/08/26 19:41:53;;;;;;;5.20;1.35;;;22.10;99.90;;;;;;5085563;28;20476;-80
2022/08/26 19:47:07;;;;;;;6.80;1.50;;;22.10;99.90;;;;;;5086144;28;20101;-78
2022/08/26 19:49:33;;;;;;;7.65;1.63;;;22.00;99.90;;;;;;5085141;28;20027;-78
2022/08/26 19:51:59;;;;;;;8.15;1.63;;;21.90;99.90;;;;;;5085957;28;20056;-77
2022/08/26 19:54:25;;;;;;;6.28;1.77;;;21.90;99.90;;;;;;5084758;28;20060;-77
2022/08/26 19:56:54;;;;;;;4.82;1.77;;;21.70;99.90;;;;;;5080967;28;20120;-77
2022/08/26 19:59:19;;;;;;;5.97;1.60;;;21.70;99.90;;;;;;5084042;28;20067;-78
2022/08/26 20:01:45;;;;;;;14.32;1.98;;;21.70;99.90;;;;;;5080541;28;20426;-77
2022/08/26 20:04:11;;;;;;;7.07;1.48;;;21.60;99.90;;;;;;5083090;28;20468;-80
2022/08/26 20:06:37;;;;;;;2.85;1.60;;;21.60;99.90;;;;;;5086411;28;20062;-77
2022/08/26 20:09:03;;;;;;;3.47;1.27;;;21.70;99.90;;;;;;5071264;28;20052;-80
2022/08/26 20:11:28;;;;;;;6.72;1.55;;;21.80;99.90;;;;;;5072994;28;20059;-79
2022/08/26 20:13:55;;;;;;;3.13;1.33;;;21.70;99.90;;;;;;5087371;28;20415;-76
2022/08/26 20:16:22;;;;;;;6.07;1.75;;;21.70;99.90;;;;;;5103480;28;20038;-79
2022/08/26 20:21:36;;;;;;;6.60;2.00;;;21.60;99.90;;;;;;5074706;28;20366;-80
2022/08/26 20:24:14;;;;;;;8.45;1.38;;;21.70;99.90;;;;;;5089480;28;20035;-77
2022/08/26 20:26:43;;;;;;;6.53;1.50;;;21.70;99.90;;;;;;5086462;28;21008;-82
2022/08/26 20:29:31;;;;;;;5.53;1.65;;;21.70;99.90;;;;;;5071080;28;20032;-77
2022/08/26 20:32:00;;;;;;;15.15;1.80;;;21.60;99.90;;;;;;5034165;28;20056;-79
2022/08/26 20:34:26;;;;;;;5.97;1.48;;;21.60;99.90;;;;;;5033811;28;20048;-79
2022/08/26 20:36:52;;;;;;;9.05;1.75;;;21.50;99.90;;;;;;5048935;28;20142;-77
2022/08/26 20:39:22;;;;;;;5.35;1.55;;;21.50;99.90;;;;;;5031036;28;20039;-74
2022/08/26 20:41:49;;;;;;;6.82;2.28;;;21.50;99.90;;;;;;5050762;28;20036;-76
2022/08/26 20:44:16;;;;;;;7.88;1.95;;;21.60;99.90;;;;;;5046715;28;20080;-78
2022/08/26 20:46:42;;;;;;;10.13;1.95;;;21.60;99.90;;;;;;5048572;28;20021;-78
2022/08/26 20:49:08;;;;;;;6.97;1.73;;;21.50;99.90;;;;;;5045912;28;20036;-76
2022/08/26 20:51:36;;;;;;;4.75;1.60;;;21.50;99.90;;;;;;5046569;28;20471;-77
2022/08/26 20:54:03;;;;;;;7.65;1.90;;;21.50;99.90;;;;;;5044810;28;20441;-77
2022/08/26 20:56:29;;;;;;;10.70;1.90;;;21.50;99.90;;;;;;5046919;28;20601;-77
2022/08/26 20:58:58;;;;;;;10.60;1.58;;;21.40;99.90;;;;;;5047907;28;20055;-75
2022/08/26 21:01:29;;;;;;;9.45;1.90;;;21.40;99.90;;;;;;5045999;28;20025;-76
2022/08/26 21:03:56;;;;;;;9.13;1.92;;;21.40;99.90;;;;;;5033669;28;20025;-77
2022/08/26 21:06:22;;;;;;;5.10;1.50;;;21.30;99.90;;;;;;5048979;28;20048;-77
2022/08/26 21:08:48;;;;;;;7.38;2.30;;;21.30;99.90;;;;;;5058233;28;20045;-75
2022/08/26 21:11:17;;;;;;;4.88;1.80;;;21.40;99.90;;;;;;5068151;28;20028;-78
2022/08/26 21:13:43;;;;;;;4.22;1.65;;;21.30;99.90;;;;;;5066100;28;20438;-77
2022/08/26 21:16:10;;;;;;;7.30;1.33;;;21.20;99.90;;;;;;5069963;28;20033;-76
2022/08/26 21:18:37;;;;;;;6.65;1.65;;;21.30;99.90;;;;;;5065626;28;20754;-75
2022/08/26 21:21:04;;;;;;;5.55;1.95;;;21.40;99.90;;;;;;5068683;28;20376;-75
2022/08/26 21:23:30;;;;;;;8.02;1.80;;;21.40;99.90;;;;;;5102477;28;20028;-76
2022/08/26 21:26:04;;;;;;;12.25;1.67;;;21.40;99.90;;;;;;5067651;28;20020;-77
2022/08/26 21:28:30;;;;;;;7.28;1.50;;;21.40;99.90;;;;;;5068200;28;20131;-76
2022/08/26 21:30:56;;;;;;;8.70;1.88;;;21.30;99.90;;;;;;5070531;28;20111;-78
2022/08/26 21:33:21;;;;;;;7.00;1.55;;;21.30;99.90;;;;;;5068875;28;20021;-77
2022/08/26 21:35:55;;;;;;;4.78;1.55;;;21.20;99.90;;;;;;5070138;28;20024;-77
2022/08/26 21:38:21;;;;;;;15.48;2.30;;;21.10;99.90;;;;;;5065876;28;20356;-78
2022/08/26 21:40:58;;;;;;;7.95;1.58;;;21.10;99.90;;;;;;5069109;28;20035;-77
2022/08/26 21:43:31;;;;;;;8.45;1.70;;;21.00;99.90;;;;;;5066285;28;20021;-84
2022/08/26 21:46:00;;;;;;;10.50;2.13;;;21.10;99.90;;;;;;5064853;28;21662;-84
2022/08/26 21:48:26;;;;;;;15.23;2.40;;;21.00;99.90;;;;;;5062939;28;20047;-77
2022/08/26 21:50:53;;;;;;;6.85;1.80;;;21.10;99.90;;;;;;5067864;28;20033;-76
2022/08/26 21:53:19;;;;;;;9.30;1.40;;;20.80;99.90;;;;;;5069456;28;20025;-77
2022/08/26 21:55:45;;;;;;;7.03;1.60;;;20.70;99.90;;;;;;5066886;28;20620;-76
2022/08/26 21:58:12;;;;;;;6.43;1.52;;;20.60;99.90;;;;;;5067136;28;20445;-76
2022/08/26 22:00:44;;;;;;;5.57;1.48;;;20.70;99.90;;;;;;5069374;28;20029;-77
2022/08/26 22:03:10;;;;;;;9.18;2.25;;;20.70;99.90;;;;;;5070265;28;20025;-77
2022/08/26 22:05:42;;;;;;;5.22;1.45;;;20.70;99.90;;;;;;5066872;28;20048;-77
2022/08/26 22:08:10;;;;;;;6.85;1.75;;;20.80;99.90;;;;;;5063632;28;20048;-75
2022/08/26 22:10:41;;;;;;;8.30;2.35;;;20.60;99.90;;;;;;5066992;28;20124;-77
2022/08/26 22:13:13;;;;;;;11.80;2.20;;;20.60;99.90;;;;;;5067983;28;20079;-77
2022/08/26 22:15:39;;;;;;;10.68;1.73;;;20.60;99.90;;;;;;5065389;28;20109;-78
2022/08/26 22:18:08;;;;;;;6.13;1.38;;;20.60;99.90;;;;;;5069044;28;20365;-77
2022/08/26 22:20:36;;;;;;;5.45;1.70;;;20.50;99.90;;;;;;5067587;28;20017;-76
2022/08/26 22:23:01;;;;;;;11.13;2.15;;;20.60;99.90;;;;;;5066441;28;20295;-77
2022/08/26 22:25:27;;;;;;;4.95;1.52;;;20.70;99.90;;;;;;5069527;28;20028;-77
2022/08/26 22:27:55;;;;;;;5.72;1.35;;;20.70;99.90;;;;;;5068712;28;20093;-77
2022/08/26 22:30:21;;;;;;;11.82;1.58;;;20.60;99.90;;;;;;5073123;28;20035;-77
2022/08/26 22:32:46;;;;;;;7.82;2.25;;;20.60;99.90;;;;;;5073414;28;20103;-79
2022/08/26 22:35:13;;;;;;;189.32;72.22;;;20.60;99.90;;;;;;5069081;28;20361;-80
2022/08/26 22:37:39;;;;;;;13.27;2.05;;;20.60;99.90;;;;;;5068199;28;20095;-79
2022/08/26 22:40:06;;;;;;;10.05;1.40;;;20.60;99.90;;;;;;5066495;28;20062;-76
2022/08/26 22:42:38;;;;;;;10.70;1.73;;;20.60;99.90;;;;;;5065869;28;20021;-79
2022/08/26 22:45:05;;;;;;;9.38;1.40;;;20.60;99.90;;;;;;5083664;28;20028;-76
2022/08/26 22:47:32;;;;;;;8.65;1.63;;;20.60;99.90;;;;;;5068603;28;20020;-74
2022/08/26 22:49:59;;;;;;;6.97;1.65;;;20.50;99.90;;;;;;5069285;28;20032;-77
2022/08/26 22:52:25;;;;;;;7.47;1.50;;;20.50;99.90;;;;;;5066773;28;20476;-76
2022/08/26 22:54:51;;;;;;;9.63;1.60;;;20.60;99.90;;;;;;5066544;28;20024;-78
2022/08/26 22:57:17;;;;;;;10.02;1.63;;;20.50;99.90;;;;;;5069896;28;20020;-78
2022/08/26 22:59:43;;;;;;;7.40;1.70;;;20.50;99.90;;;;;;5066069;28;20029;-76
2022/08/26 23:02:10;;;;;;;4.43;1.48;;;20.40;99.90;;;;;;5070196;28;20074;-77
2022/08/26 23:04:35;;;;;;;11.27;1.83;;;20.40;99.90;;;;;;5071129;28;20024;-76
2022/08/26 23:07:01;;;;;;;5.43;1.55;;;20.50;99.90;;;;;;5067068;28;20360;-78
2022/08/26 23:09:27;;;;;;;8.00;1.55;;;20.40;99.90;;;;;;5069186;28;20025;-78
2022/08/26 23:11:55;;;;;;;6.97;2.03;;;20.40;99.90;;;;;;5069155;28;20391;-76
2022/08/26 23:14:22;;;;;;;5.72;1.42;;;20.40;99.90;;;;;;5068624;28;20040;-77
2022/08/26 23:16:48;;;;;;;8.25;1.83;;;20.40;99.90;;;;;;5069837;28;20028;-77
2022/08/26 23:19:16;;;;;;;7.40;1.48;;;20.40;99.90;;;;;;5067567;28;20441;-76
2022/08/26 23:21:42;;;;;;;6.13;1.90;;;20.40;99.90;;;;;;5068633;28;20028;-77
2022/08/26 23:24:09;;;;;;;6.65;1.83;;;20.40;99.90;;;;;;5067981;28;20036;-77
2022/08/26 23:26:38;;;;;;;3.58;1.60;;;20.40;99.90;;;;;;5068075;28;20032;-78
2022/08/26 23:29:06;;;;;;;7.97;1.83;;;20.40;99.90;;;;;;5067323;28;20021;-76
2022/08/26 23:31:35;;;;;;;4.93;1.42;;;20.40;99.90;;;;;;5068433;28;20025;-78
2022/08/26 23:36:45;;;;;;;10.13;2.33;;;20.30;99.90;;;;;;5068239;28;20051;-76
2022/08/26 23:39:11;;;;;;;4.90;1.80;;;20.30;99.90;;;;;;5069757;28;20514;-78
2022/08/26 23:41:37;;;;;;;5.75;1.50;;;20.30;99.90;;;;;;5070588;28;20112;-77
2022/08/26 23:44:04;;;;;;;6.05;1.63;;;20.20;99.90;;;;;;5072743;28;20115;-77
2022/08/26 23:46:35;;;;;;;5.03;1.80;;;20.30;99.90;;;;;;5073010;28;20025;-76
2022/08/26 23:49:06;;;;;;;6.28;1.80;;;20.30;99.90;;;;;;5072079;28;20043;-77
2022/08/26 23:54:16;;;;;;;5.40;1.88;;;20.20;99.90;;;;;;5071994;28;20042;-79
2022/08/26 23:56:41;;;;;;;2.30;1.60;;;20.20;99.90;;;;;;5069359;28;20124;-78
2022/08/26 23:59:07;;;;;;;7.88;1.80;;;20.20;99.90;;;;;;5069144;28;20012;-78
